createdAt,value
2018-03-19T00:04:38.713Z,-2.00
2018-03-19T00:09:44.056Z,-2.00
2018-03-19T00:14:50.859Z,-2.10
2018-03-19T00:19:56.216Z,-2.10
2018-03-19T00:25:01.189Z,-2.10
2018-03-19T00:30:07.916Z,-2.10
2018-03-19T00:35:15.386Z,-2.10
2018-03-19T00:40:20.827Z,-2.10
2018-03-19T00:45:24.904Z,-2.10
2018-03-19T00:50:29.279Z,-2.10
2018-03-19T00:55:33.205Z,-2.10
2018-03-19T01:00:37.203Z,-2.10
2018-03-19T01:05:41.253Z,-2.10
2018-03-19T01:10:45.231Z,-2.10
2018-03-19T01:15:48.892Z,-2.20
2018-03-19T01:20:53.536Z,-2.20
2018-03-19T01:26:01.694Z,-2.20
2018-03-19T01:31:07.659Z,-2.20
2018-03-19T01:36:18.175Z,-2.20
2018-03-19T01:41:24.998Z,-2.20
2018-03-19T01:46:31.575Z,-2.20
2018-03-19T01:51:38.621Z,-2.20
2018-03-19T01:56:42.507Z,-2.20
2018-03-19T02:01:48.077Z,-2.30
2018-03-19T02:06:54.929Z,-2.30
2018-03-19T02:12:01.400Z,-2.30
2018-03-19T02:17:05.928Z,-2.30
2018-03-19T02:22:16.662Z,-2.30
2018-03-19T02:27:19.454Z,-2.30
2018-03-19T02:32:23.946Z,-2.30
2018-03-19T02:37:28.179Z,-2.30
2018-03-19T02:42:31.445Z,-2.40
2018-03-19T02:47:34.388Z,-2.40
2018-03-19T02:52:37.720Z,-2.40
2018-03-19T02:57:43.960Z,-2.40
2018-03-19T03:02:49.293Z,-2.40
2018-03-19T03:07:52.578Z,-2.40
2018-03-19T03:12:56.155Z,-2.40
2018-03-19T03:18:01.412Z,-2.40
2018-03-19T03:23:06.871Z,-2.40
2018-03-19T03:28:11.703Z,-2.50
2018-03-19T03:33:15.712Z,-2.50
2018-03-19T03:38:20.201Z,-2.50
2018-03-19T03:43:23.773Z,-2.50
2018-03-19T03:48:28.860Z,-2.50
2018-03-19T03:53:32.724Z,-2.50
2018-03-19T03:58:40.865Z,-2.50
2018-03-19T04:03:48.538Z,-2.50
2018-03-19T04:08:55.096Z,-2.50
2018-03-19T04:13:59.504Z,-2.50
2018-03-19T04:19:02.532Z,-2.60
2018-03-19T04:24:06.089Z,-2.60
2018-03-19T04:29:12.766Z,-2.60
2018-03-19T04:34:16.084Z,-2.60
2018-03-19T04:39:27.044Z,-2.60
2018-03-19T04:44:30.882Z,-2.60
2018-03-19T04:49:36.600Z,-2.60
2018-03-19T04:54:39.882Z,-2.60
2018-03-19T04:59:43.625Z,-2.60
2018-03-19T05:04:46.604Z,-2.60
2018-03-19T05:09:49.647Z,-2.60
2018-03-19T05:14:52.634Z,-2.60
2018-03-19T05:19:55.697Z,-2.70
2018-03-19T05:25:05.890Z,-2.70
2018-03-19T05:30:12.061Z,-2.70
2018-03-19T05:35:16.843Z,-2.70
2018-03-19T05:40:19.767Z,-2.70
2018-03-19T05:45:22.697Z,-2.70
2018-03-19T05:50:28.056Z,-2.70
2018-03-19T05:55:33.124Z,-2.70
2018-03-19T06:00:43.662Z,-2.70
2018-03-19T06:05:47.927Z,-2.70
2018-03-19T06:10:51.953Z,-2.70
2018-03-19T06:15:57.766Z,-2.70
2018-03-19T06:21:00.679Z,-2.70
2018-03-19T06:26:03.860Z,-2.70
2018-03-19T06:31:08.568Z,-2.70
2018-03-19T06:36:15.481Z,-2.70
2018-03-19T06:41:18.463Z,-2.70
2018-03-19T06:46:24.112Z,-2.70
2018-03-19T06:51:30.099Z,-2.70
2018-03-19T06:56:34.767Z,-2.70
2018-03-19T07:01:38.419Z,-2.70
2018-03-19T07:06:45.601Z,-2.70
2018-03-19T07:11:49.588Z,-2.70
2018-03-19T07:16:52.149Z,-2.70
2018-03-19T07:21:55.074Z,-2.70
2018-03-19T07:27:00.450Z,-2.70
2018-03-19T07:32:04.108Z,-2.70
2018-03-19T07:37:07.044Z,-2.70
2018-03-19T07:42:12.042Z,-2.60
2018-03-19T07:47:21.825Z,-2.70
2018-03-19T07:52:30.422Z,-2.60
2018-03-19T07:57:33.746Z,-2.60
2018-03-19T08:02:37.289Z,-2.50
2018-03-19T08:07:41.720Z,-2.50
2018-03-19T08:12:47.861Z,-2.50
2018-03-19T08:17:52.747Z,-2.50
2018-03-19T08:22:57.861Z,-2.40
2018-03-19T08:28:31.527Z,-2.30
2018-03-19T08:33:35.605Z,-2.30
2018-03-19T08:38:39.509Z,-2.30
2018-03-19T08:43:43.120Z,-2.30
2018-03-19T08:48:48.811Z,-2.30
2018-03-19T08:53:55.930Z,-2.20
2018-03-19T08:59:03.021Z,-2.20
2018-03-19T09:04:06.096Z,-2.10
2018-03-19T09:09:09.246Z,-2.10
2018-03-19T09:14:13.957Z,-2.00
2018-03-19T09:19:17.810Z,-2.00
2018-03-19T09:24:23.632Z,-1.90
2018-03-19T09:29:27.094Z,-1.90
2018-03-19T09:34:31.206Z,-1.80
2018-03-19T09:39:34.212Z,-1.70
2018-03-19T09:44:38.478Z,-1.60
2018-03-19T09:49:43.385Z,-1.50
2018-03-19T09:54:46.332Z,-1.40
2018-03-19T09:59:49.483Z,-1.30
2018-03-19T10:04:52.070Z,-1.20
2018-03-19T10:09:56.311Z,-1.10
2018-03-19T10:15:00.450Z,-1.00
2018-03-19T10:20:03.724Z,-1.00
2018-03-19T10:25:07.791Z,-0.90
2018-03-19T10:30:13.511Z,-0.80
2018-03-19T10:35:21.373Z,-0.70
2018-03-19T10:40:25.057Z,-0.60
2018-03-19T10:45:28.006Z,-0.50
2018-03-19T10:50:32.683Z,-0.50
2018-03-19T10:55:36.810Z,-0.40
2018-03-19T11:00:42.086Z,-0.20
2018-03-19T11:06:08.281Z,-0.10
2018-03-19T11:11:11.500Z,-0.10
2018-03-19T11:16:18.073Z,0.10
2018-03-19T11:21:21.061Z,0.20
2018-03-19T11:26:26.094Z,0.20
2018-03-19T11:31:31.162Z,0.30
2018-03-19T11:36:35.300Z,0.40
2018-03-19T11:41:41.823Z,0.50
2018-03-19T11:46:45.042Z,0.60
2018-03-19T11:51:50.173Z,0.60
2018-03-19T11:56:56.081Z,0.70
2018-03-19T12:02:00.322Z,0.80
2018-03-19T12:07:04.142Z,0.90
2018-03-19T12:12:08.260Z,0.90
2018-03-19T12:17:13.086Z,1.00
2018-03-19T12:22:17.156Z,1.10
2018-03-19T12:27:20.584Z,1.20
2018-03-19T12:32:24.816Z,1.30
2018-03-19T12:37:27.915Z,1.30
2018-03-19T12:42:32.868Z,1.40
2018-03-19T12:47:35.697Z,1.50
2018-03-19T12:52:39.493Z,1.50
2018-03-19T12:57:42.587Z,1.60
2018-03-19T13:02:49.382Z,1.80
2018-03-19T13:07:53.254Z,1.70
2018-03-19T13:12:56.382Z,1.80
2018-03-19T13:18:01.345Z,1.80
2018-03-19T13:23:05.472Z,1.90
2018-03-19T13:28:09.351Z,1.90
2018-03-19T13:33:13.146Z,2.00
2018-03-19T13:38:18.468Z,2.00
2018-03-19T13:43:21.352Z,2.10
2018-03-19T13:48:24.664Z,2.10
2018-03-19T13:53:28.415Z,2.10
2018-03-19T13:58:32.318Z,2.10
2018-03-19T14:03:36.582Z,2.00
2018-03-19T14:08:40.650Z,2.00
2018-03-19T14:13:43.804Z,1.90
2018-03-19T14:18:48.517Z,1.90
2018-03-19T14:23:53.733Z,1.90
2018-03-19T14:28:59.489Z,1.90
2018-03-19T14:34:05.365Z,2.00
2018-03-19T14:39:08.690Z,2.10
2018-03-19T14:44:12.555Z,2.20
2018-03-19T14:49:17.369Z,2.30
2018-03-19T14:54:21.377Z,2.30
2018-03-19T14:59:26.889Z,2.50
2018-03-19T15:04:32.777Z,2.60
2018-03-19T15:09:37.433Z,2.60
2018-03-19T15:14:40.534Z,2.60
2018-03-19T15:19:43.535Z,2.60
2018-03-19T15:24:49.285Z,2.50
2018-03-19T15:29:53.027Z,2.40
2018-03-19T15:34:56.019Z,2.40
2018-03-19T15:39:59.747Z,2.30
2018-03-19T15:45:04.070Z,2.30
2018-03-19T15:50:08.625Z,2.20
2018-03-19T15:55:12.684Z,2.20
2018-03-19T16:00:16.881Z,2.10
2018-03-19T16:05:20.732Z,2.00
2018-03-19T16:10:23.723Z,2.00
2018-03-19T16:15:27.511Z,1.90
2018-03-19T16:20:33.172Z,1.80
2018-03-19T16:25:37.067Z,1.80
2018-03-19T16:30:40.108Z,1.70
2018-03-19T16:35:43.304Z,1.60
2018-03-19T16:40:46.248Z,1.60
2018-03-19T16:45:50.657Z,1.50
2018-03-19T16:50:54.824Z,1.40
2018-03-19T16:55:58.064Z,1.40
2018-03-19T17:01:03.519Z,1.30
2018-03-19T17:06:08.245Z,1.20
2018-03-19T17:11:12.251Z,1.00
2018-03-19T17:16:19.199Z,1.00
2018-03-19T17:21:26.723Z,1.00
2018-03-19T17:26:32.099Z,0.90
2018-03-19T17:31:37.776Z,0.80
2018-03-19T17:36:44.492Z,0.70
2018-03-19T17:47:07.525Z,0.50
2018-03-19T17:52:28.758Z,0.50
2018-03-19T17:57:33.973Z,0.40
2018-03-19T18:02:39.330Z,0.30
2018-03-19T18:07:42.606Z,0.30
2018-03-19T18:12:57.400Z,0.10
2018-03-19T18:18:06.938Z,0.10
2018-03-19T18:23:18.632Z,0.00
2018-03-19T18:28:25.613Z,-0.10
2018-03-19T18:33:35.416Z,-0.20
2018-03-19T18:38:42.113Z,-0.20
2018-03-19T18:43:46.329Z,-0.30
2018-03-19T18:48:49.032Z,-0.40
2018-03-19T18:53:52.337Z,-0.50
2018-03-19T18:58:54.890Z,-0.50
2018-03-19T19:03:57.442Z,-0.50
2018-03-19T19:09:00.024Z,-0.60
2018-03-19T19:14:02.570Z,-0.60
2018-03-19T19:19:05.143Z,-0.70
2018-03-19T19:24:07.707Z,-0.70
2018-03-19T19:29:10.267Z,-0.70
2018-03-19T19:34:12.818Z,-0.80
2018-03-19T19:44:16.309Z,-0.80
2018-03-19T19:49:18.846Z,-0.90
2018-03-19T19:54:21.413Z,-0.90
2018-03-19T19:59:23.950Z,-0.90
2018-03-19T20:04:27.258Z,-1.00
2018-03-19T20:09:29.821Z,-1.00
2018-03-19T20:14:32.384Z,-1.00
2018-03-19T20:19:34.941Z,-1.10
2018-03-19T20:24:37.585Z,-1.10
2018-03-19T20:29:40.146Z,-1.10
2018-03-19T20:34:42.692Z,-1.10
2018-03-19T20:39:46.010Z,-1.10
2018-03-19T20:44:49.334Z,-1.20
2018-03-19T20:49:52.642Z,-1.20
2018-03-19T20:54:56.004Z,-1.20
2018-03-19T20:59:58.556Z,-1.20
2018-03-19T21:05:01.909Z,-1.20
2018-03-19T21:10:04.465Z,-1.30
2018-03-19T21:15:07.782Z,-1.30
2018-03-19T21:20:10.327Z,-1.30
2018-03-19T21:25:12.926Z,-1.30
2018-03-19T21:30:15.523Z,-1.30
2018-03-19T21:35:18.081Z,-1.30
2018-03-19T21:40:21.401Z,-1.40
2018-03-19T21:45:24.713Z,-1.40
2018-03-19T21:50:27.246Z,-1.40
2018-03-19T21:55:29.802Z,-1.40
2018-03-19T22:00:32.355Z,-1.40
2018-03-19T22:05:34.909Z,-1.40
2018-03-19T22:10:37.449Z,-1.40
2018-03-19T22:15:39.990Z,-1.40
2018-03-19T22:20:42.528Z,-1.40
2018-03-19T22:25:45.058Z,-1.50
2018-03-19T22:30:47.610Z,-1.50
2018-03-19T22:35:50.923Z,-1.50
2018-03-19T22:40:53.474Z,-1.50
2018-03-19T22:45:56.028Z,-1.50
2018-03-19T22:50:58.566Z,-1.50
2018-03-19T22:56:01.098Z,-1.50
2018-03-19T23:01:03.649Z,-1.50
2018-03-19T23:06:06.186Z,-1.50
2018-03-19T23:11:08.730Z,-1.50
2018-03-19T23:16:11.277Z,-1.60
2018-03-19T23:21:13.820Z,-1.60
2018-03-19T23:26:16.351Z,-1.60
2018-03-19T23:31:18.897Z,-1.60
2018-03-19T23:36:21.444Z,-1.60
2018-03-19T23:41:23.985Z,-1.60
2018-03-19T23:46:26.518Z,-1.60
2018-03-19T23:51:29.065Z,-1.60
2018-03-19T23:56:31.602Z,-1.60
